Time;durP1;ratioP1;P1;durP2;ratioP2;P2;SDS_P1;SDS_P2;PMS_P1;PMS_P2;Temp;Humidity;BMP_temperature;BMP_pressure;BME280_temperature;BME280_humidity;BME280_pressure;Samples;Min_cycle;Max_cycle;Signal;HPM_P1;HPM_P2
2022/05/28 00:01:25;;;;;;;6.95;1.52;;;10.50;99.90;;;;;;4994294;28;20280;-42
2022/05/28 00:03:54;;;;;;;1.65;1.40;;;10.40;99.90;;;;;;4994573;28;20200;-42
2022/05/28 00:06:24;;;;;;;5.85;1.90;;;10.40;99.90;;;;;;4995276;28;20557;-42
2022/05/28 00:08:51;;;;;;;2.13;1.55;;;10.30;99.90;;;;;;4994935;28;20278;-43
2022/05/28 00:11:22;;;;;;;7.07;1.60;;;10.20;99.90;;;;;;4977818;28;20485;-44
2022/05/28 00:13:50;;;;;;;1.50;1.40;;;10.20;99.90;;;;;;4994409;28;20279;-44
2022/05/28 00:16:19;;;;;;;5.78;1.65;;;10.20;99.90;;;;;;4994872;28;20267;-47
2022/05/28 00:18:49;;;;;;;4.30;1.50;;;10.20;99.90;;;;;;4996246;28;20222;-44
2022/05/28 00:21:16;;;;;;;4.53;2.55;;;10.10;99.90;;;;;;4995129;28;20208;-45
2022/05/28 00:23:46;;;;;;;5.30;1.77;;;10.20;99.90;;;;;;4994637;28;20217;-49
2022/05/28 00:26:14;;;;;;;5.65;2.47;;;10.10;99.90;;;;;;4997109;28;20278;-45
2022/05/28 00:28:43;;;;;;;1.70;1.60;;;10.10;99.90;;;;;;4998923;28;20317;-46
2022/05/28 00:31:12;;;;;;;2.40;2.20;;;10.00;99.90;;;;;;4999164;28;20211;-47
2022/05/28 00:33:39;;;;;;;3.38;1.83;;;9.90;99.90;;;;;;4998749;28;20219;-45
2022/05/28 00:36:09;;;;;;;2.10;1.90;;;9.90;99.90;;;;;;4999269;28;20202;-47
2022/05/28 00:38:38;;;;;;;2.40;1.48;;;9.90;99.90;;;;;;4998464;28;20206;-44
2022/05/28 00:41:06;;;;;;;2.78;1.52;;;9.90;99.90;;;;;;4998570;28;20314;-44
2022/05/28 00:43:33;;;;;;;1.92;1.83;;;9.80;99.90;;;;;;4998047;28;20481;-47
2022/05/28 00:46:20;;;;;;;3.97;2.00;;;9.80;99.90;;;;;;4998592;28;20229;-46
2022/05/28 00:48:51;;;;;;;1.80;1.70;;;9.80;99.90;;;;;;4998161;28;20418;-48
2022/05/28 00:51:22;;;;;;;3.75;1.85;;;9.80;99.90;;;;;;4998795;28;20438;-49
2022/05/28 00:53:49;;;;;;;3.60;2.15;;;9.80;99.90;;;;;;4998341;28;20442;-46
2022/05/28 00:56:17;;;;;;;3.90;1.65;;;9.70;99.90;;;;;;4999372;28;20237;-47
2022/05/28 00:58:45;;;;;;;5.50;1.77;;;9.60;99.90;;;;;;4999196;28;20229;-43
2022/05/28 01:01:13;;;;;;;1.88;1.60;;;9.60;99.90;;;;;;4997762;28;20281;-45
2022/05/28 01:03:48;;;;;;;4.80;2.08;;;9.60;99.90;;;;;;4998831;28;20210;-46
2022/05/28 01:06:19;;;;;;;2.67;1.70;;;9.60;99.90;;;;;;4998361;28;20581;-49
2022/05/28 01:09:05;;;;;;;3.45;1.50;;;9.70;99.90;;;;;;4998661;28;20454;-46
2022/05/28 01:12:14;;;;;;;4.22;1.90;;;9.70;99.90;;;;;;4998898;28;20448;-44
2022/05/28 01:14:44;;;;;;;3.55;1.50;;;9.90;99.90;;;;;;4993629;28;20245;-43
2022/05/28 01:17:30;;;;;;;8.15;2.33;;;10.00;99.90;;;;;;4998363;28;20207;-45
2022/05/28 01:20:21;;;;;;;1.63;1.52;;;10.10;99.90;;;;;;4998073;28;20207;-45
2022/05/28 01:23:15;;;;;;;2.55;1.85;;;10.20;99.90;;;;;;4997545;28;20322;-44
2022/05/28 01:26:20;;;;;;;4.82;2.17;;;10.10;99.90;;;;;;4965260;28;20546;-44
2022/05/28 01:29:05;;;;;;;2.50;2.00;;;10.00;99.90;;;;;;4997625;28;20393;-44
2022/05/28 01:31:33;;;;;;;3.70;2.13;;;9.80;99.90;;;;;;4998036;28;20252;-43
2022/05/28 01:34:05;;;;;;;2.53;2.28;;;9.80;99.90;;;;;;4997665;28;20261;-46
2022/05/28 01:36:35;;;;;;;2.72;1.90;;;9.80;99.90;;;;;;4998299;28;20514;-46
2022/05/28 01:39:04;;;;;;;3.40;1.92;;;9.80;99.90;;;;;;4996626;28;20209;-42
2022/05/28 01:41:34;;;;;;;3.80;1.65;;;9.60;99.90;;;;;;4980500;28;20227;-46
2022/05/28 01:44:03;;;;;;;9.02;2.00;;;9.70;99.90;;;;;;4997428;28;20683;-42
2022/05/28 01:46:33;;;;;;;2.67;2.05;;;9.70;99.90;;;;;;4997811;28;20214;-44
2022/05/28 01:49:01;;;;;;;1.83;1.63;;;9.60;99.90;;;;;;4997181;28;20246;-45
2022/05/28 01:51:34;;;;;;;3.72;2.55;;;9.60;99.90;;;;;;4997527;28;20591;-43
2022/05/28 01:54:12;;;;;;;2.80;1.77;;;9.70;99.90;;;;;;4997446;28;20240;-42
2022/05/28 01:56:43;;;;;;;3.45;2.05;;;9.90;99.90;;;;;;4997378;28;20539;-44
2022/05/28 01:59:20;;;;;;;3.60;1.77;;;10.00;99.90;;;;;;4997758;28;20214;-44
2022/05/28 02:01:49;;;;;;;4.57;2.33;;;10.20;99.90;;;;;;4996603;28;20227;-42
2022/05/28 02:04:16;;;;;;;8.05;2.10;;;10.30;99.90;;;;;;4997895;28;20211;-43
2022/05/28 02:06:43;;;;;;;1.50;1.40;;;10.30;99.90;;;;;;4997180;28;20210;-45
2022/05/28 02:09:15;;;;;;;2.95;1.88;;;10.50;99.90;;;;;;4997513;28;20243;-45
2022/05/28 02:11:50;;;;;;;8.35;1.85;;;10.60;99.90;;;;;;4996671;28;20239;-42
2022/05/28 02:14:43;;;;;;;5.15;1.92;;;10.50;99.90;;;;;;4997129;28;20242;-44
2022/05/28 02:17:35;;;;;;;2.20;1.85;;;10.40;99.90;;;;;;4973591;28;20205;-41
2022/05/28 02:20:08;;;;;;;2.90;2.15;;;10.00;99.90;;;;;;4946297;28;20211;-42
2022/05/28 02:22:57;;;;;;;5.20;1.30;;;9.70;99.90;;;;;;4996714;28;20524;-44
2022/05/28 02:25:38;;;;;;;3.50;1.17;;;9.50;99.90;;;;;;4998230;28;20283;-41
2022/05/28 02:28:08;;;;;;;2.60;1.60;;;9.40;99.90;;;;;;4998744;28;20221;-48
2022/05/28 02:31:01;;;;;;;6.05;1.90;;;9.30;99.90;;;;;;4997058;28;20218;-44
2022/05/28 02:33:33;;;;;;;1.85;1.40;;;9.20;99.90;;;;;;4994763;28;20234;-45
2022/05/28 02:36:00;;;;;;;5.53;1.88;;;9.30;99.90;;;;;;4996182;28;20253;-49
2022/05/28 02:38:30;;;;;;;3.47;1.85;;;9.40;99.90;;;;;;4993195;28;20221;-45
2022/05/28 02:40:59;;;;;;;3.00;1.55;;;9.60;99.90;;;;;;4996440;28;20211;-46
2022/05/28 02:43:27;;;;;;;2.22;1.30;;;9.70;99.90;;;;;;4992134;28;20748;-44
2022/05/28 02:45:54;;;;;;;6.38;2.75;;;9.60;99.90;;;;;;4995992;28;20222;-42
2022/05/28 02:48:21;;;;;;;5.22;2.00;;;9.70;99.90;;;;;;4995767;28;20442;-43
2022/05/28 02:50:48;;;;;;;5.03;2.13;;;9.60;99.90;;;;;;4995924;28;20214;-44
2022/05/28 02:53:16;;;;;;;6.35;1.40;;;9.60;99.90;;;;;;4995803;28;20234;-42
2022/05/28 02:55:44;;;;;;;2.20;1.50;;;9.50;99.90;;;;;;4995829;28;20217;-44
2022/05/28 02:58:14;;;;;;;12.13;1.80;;;9.50;99.90;;;;;;4996723;28;20210;-49
2022/05/28 03:00:41;;;;;;;1.70;1.25;;;9.50;99.90;;;;;;4995665;28;20571;-43
2022/05/28 03:03:08;;;;;;;2.40;1.90;;;9.50;99.90;;;;;;4995837;28;20282;-42
2022/05/28 03:05:35;;;;;;;1.92;1.13;;;9.60;99.90;;;;;;4978879;28;20225;-45
2022/05/28 03:08:02;;;;;;;1.70;1.30;;;9.80;99.90;;;;;;4995845;28;20214;-44
2022/05/28 03:10:30;;;;;;;3.42;1.85;;;10.00;99.90;;;;;;4995398;28;20211;-46
2022/05/28 03:12:57;;;;;;;3.95;1.50;;;10.10;99.90;;;;;;4995611;28;20235;-45
2022/05/28 03:15:24;;;;;;;2.45;1.33;;;10.10;99.90;;;;;;4996532;28;20378;-44
2022/05/28 03:17:51;;;;;;;4.10;1.25;;;10.10;99.90;;;;;;4995934;28;20217;-46
2022/05/28 03:20:19;;;;;;;2.78;1.45;;;10.10;99.90;;;;;;4996852;28;20241;-46
2022/05/28 03:22:46;;;;;;;1.77;1.40;;;10.10;99.90;;;;;;4996094;28;20237;-41
2022/05/28 03:25:14;;;;;;;4.88;1.77;;;10.20;99.90;;;;;;4995588;28;20768;-42
2022/05/28 03:27:41;;;;;;;2.90;1.45;;;10.30;99.90;;;;;;4995104;28;20215;-47
2022/05/28 03:30:09;;;;;;;3.40;1.25;;;10.40;99.90;;;;;;4996514;28;20250;-47
2022/05/28 03:32:36;;;;;;;2.25;1.77;;;10.40;99.90;;;;;;4996748;28;20235;-43
2022/05/28 03:35:04;;;;;;;1.98;1.27;;;10.50;99.90;;;;;;4996881;28;20213;-44
2022/05/28 03:37:32;;;;;;;4.10;1.63;;;10.50;99.90;;;;;;4998039;28;20207;-43
2022/05/28 03:39:59;;;;;;;4.20;2.28;;;10.60;99.90;;;;;;4997936;28;20218;-42
2022/05/28 03:42:26;;;;;;;2.25;1.40;;;10.70;99.90;;;;;;4990347;28;20239;-46
2022/05/28 03:44:54;;;;;;;1.98;1.40;;;11.00;99.90;;;;;;4998146;28;20742;-42
2022/05/28 03:47:21;;;;;;;1.80;1.60;;;11.20;99.90;;;;;;4996705;28;20215;-43
2022/05/28 03:49:48;;;;;;;1.75;1.20;;;11.50;99.90;;;;;;4977812;28;20304;-41
2022/05/28 03:52:15;;;;;;;10.93;1.42;;;11.80;99.90;;;;;;4994964;28;20233;-47
2022/05/28 03:54:45;;;;;;;4.55;1.30;;;12.10;99.90;;;;;;4995407;28;20800;-46
2022/05/28 03:57:17;;;;;;;3.55;1.33;;;12.00;99.90;;;;;;4995466;28;20209;-41
2022/05/28 03:59:44;;;;;;;2.03;1.90;;;12.10;99.90;;;;;;4995831;28;20548;-43
2022/05/28 04:02:11;;;;;;;3.47;1.35;;;12.20;99.90;;;;;;4998354;28;20228;-41
2022/05/28 04:04:39;;;;;;;4.25;1.77;;;12.20;99.90;;;;;;4998886;28;20274;-46
2022/05/28 04:07:08;;;;;;;3.70;2.25;;;12.10;99.90;;;;;;4998844;28;20550;-45
2022/05/28 04:09:35;;;;;;;2.45;1.50;;;12.20;99.90;;;;;;4999871;28;20239;-45
2022/05/28 04:12:03;;;;;;;5.70;1.65;;;12.50;99.90;;;;;;4998163;28;20243;-41
2022/05/28 04:14:30;;;;;;;1.75;1.10;;;12.70;99.90;;;;;;4999083;28;20236;-41
2022/05/28 04:16:58;;;;;;;2.03;1.00;;;12.50;99.90;;;;;;4998651;28;20275;-45
2022/05/28 04:19:25;;;;;;;10.40;1.35;;;12.30;99.90;;;;;;4998576;28;20423;-47
2022/05/28 04:21:53;;;;;;;2.30;1.60;;;12.10;99.90;;;;;;4998781;28;20238;-46
2022/05/28 04:24:20;;;;;;;1.80;1.65;;;11.90;99.90;;;;;;4998775;28;20209;-44
2022/05/28 04:26:47;;;;;;;2.28;1.60;;;11.80;99.90;;;;;;4998722;28;20310;-47
2022/05/28 04:29:14;;;;;;;2.97;1.52;;;11.90;99.90;;;;;;4995265;28;20223;-45
2022/05/28 04:31:42;;;;;;;0.90;0.85;;;11.80;99.90;;;;;;4998308;28;20242;-42
2022/05/28 04:34:09;;;;;;;1.25;1.13;;;11.80;99.90;;;;;;4998393;28;20229;-45
2022/05/28 04:36:37;;;;;;;3.60;3.15;;;11.70;99.90;;;;;;4984815;28;20226;-44
2022/05/28 04:39:04;;;;;;;10.77;2.00;;;11.90;99.90;;;;;;4998677;28;20219;-46
2022/05/28 04:41:32;;;;;;;6.78;2.38;;;12.00;99.90;;;;;;4998307;28;20601;-43
2022/05/28 04:43:59;;;;;;;1.90;1.55;;;12.20;99.90;;;;;;4998620;28;20287;-46
2022/05/28 04:46:26;;;;;;;1.60;1.20;;;12.40;99.90;;;;;;4996308;28;20657;-42
2022/05/28 04:48:54;;;;;;;1.83;1.10;;;12.60;99.90;;;;;;4998640;28;20222;-45
2022/05/28 04:51:25;;;;;;;4.93;2.08;;;12.50;99.90;;;;;;4982807;28;20237;-43
2022/05/28 04:53:52;;;;;;;5.60;1.52;;;12.50;99.90;;;;;;4998474;28;20432;-47
2022/05/28 04:56:19;;;;;;;4.32;1.38;;;12.40;99.90;;;;;;4997973;28;20419;-42
2022/05/28 04:58:47;;;;;;;7.03;1.52;;;12.30;99.90;;;;;;4983015;28;20239;-44
2022/05/28 05:01:17;;;;;;;4.25;1.60;;;12.30;99.90;;;;;;4998086;28;20213;-44
2022/05/28 05:03:44;;;;;;;7.57;2.13;;;12.30;99.90;;;;;;4997893;28;20287;-45
2022/05/28 05:06:11;;;;;;;4.68;1.65;;;12.40;99.90;;;;;;4998195;28;20236;-43
2022/05/28 05:08:43;;;;;;;1.75;1.50;;;12.50;99.90;;;;;;4998240;28;20228;-45
2022/05/28 05:11:11;;;;;;;3.42;1.15;;;12.50;99.90;;;;;;4998186;28;20216;-42
2022/05/28 05:13:38;;;;;;;2.97;1.63;;;12.40;99.90;;;;;;4997547;28;20236;-41
2022/05/28 05:16:16;;;;;;;7.53;1.85;;;12.40;99.90;;;;;;4998886;28;20470;-44
2022/05/28 05:18:44;;;;;;;4.75;1.85;;;12.40;99.90;;;;;;4997459;28;20208;-44
2022/05/28 05:21:15;;;;;;;2.33;1.20;;;12.40;99.90;;;;;;4998064;28;20223;-45
2022/05/28 05:23:43;;;;;;;1.55;1.30;;;12.50;99.90;;;;;;4997360;28;20244;-43
2022/05/28 05:26:12;;;;;;;7.75;1.90;;;12.30;99.90;;;;;;4998015;28;20545;-43
2022/05/28 05:28:41;;;;;;;1.63;1.52;;;12.10;99.90;;;;;;4997423;28;20227;-42
2022/05/28 05:31:11;;;;;;;1.35;1.25;;;12.20;99.90;;;;;;4998043;28;20300;-44
2022/05/28 05:33:40;;;;;;;1.27;0.90;;;12.30;99.90;;;;;;4997294;28;20236;-46
2022/05/28 05:36:07;;;;;;;3.72;1.00;;;12.40;99.90;;;;;;4998008;28;20273;-44
2022/05/28 05:38:35;;;;;;;2.95;1.23;;;12.50;99.90;;;;;;4998126;28;20385;-47
2022/05/28 05:41:03;;;;;;;9.75;1.90;;;12.70;99.90;;;;;;4997341;28;20524;-43
2022/05/28 05:43:30;;;;;;;1.45;0.80;;;12.90;99.90;;;;;;4997746;28;20432;-44
2022/05/28 05:46:00;;;;;;;5.20;1.80;;;12.90;99.90;;;;;;4997737;28;20244;-46
2022/05/28 05:48:29;;;;;;;1.58;1.23;;;13.00;99.90;;;;;;4995425;28;20271;-44
2022/05/28 05:51:03;;;;;;;4.05;1.30;;;13.00;99.90;;;;;;4996783;28;20205;-47
2022/05/28 05:53:30;;;;;;;3.17;0.82;;;13.10;99.90;;;;;;4994695;28;20224;-47
2022/05/28 05:55:57;;;;;;;4.18;1.70;;;13.20;99.90;;;;;;4997386;28;20409;-43
2022/05/28 05:58:25;;;;;;;3.65;1.10;;;13.50;99.90;;;;;;4997437;28;20508;-46
2022/05/28 06:00:52;;;;;;;3.35;1.17;;;14.00;99.90;;;;;;4996639;28;20224;-43
2022/05/28 06:03:19;;;;;;;4.68;1.30;;;14.60;99.90;;;;;;4997121;28;20237;-45
2022/05/28 06:05:47;;;;;;;3.50;1.25;;;15.10;99.90;;;;;;4997294;28;20229;-44
2022/05/28 06:08:17;;;;;;;1.80;1.20;;;15.10;99.90;;;;;;4996933;28;20584;-44
2022/05/28 06:10:45;;;;;;;2.55;1.40;;;14.40;99.90;;;;;;4996927;28;20216;-47
2022/05/28 06:13:12;;;;;;;2.15;0.75;;;13.90;99.90;;;;;;4996628;28;20234;-44
2022/05/28 06:15:39;;;;;;;1.10;0.70;;;13.80;99.90;;;;;;4997050;28;20202;-43
2022/05/28 06:18:07;;;;;;;1.30;1.20;;;13.40;99.90;;;;;;4997120;28;20216;-44
2022/05/28 06:20:35;;;;;;;2.08;1.50;;;13.10;99.90;;;;;;4996803;28;20209;-46
2022/05/28 06:23:02;;;;;;;6.03;2.38;;;13.30;99.90;;;;;;4995635;28;20556;-48
2022/05/28 06:25:29;;;;;;;2.45;1.10;;;13.30;99.90;;;;;;4996502;28;20206;-44
2022/05/28 06:28:01;;;;;;;2.80;1.00;;;13.50;99.90;;;;;;4964166;28;20524;-48
2022/05/28 06:30:28;;;;;;;3.90;1.10;;;13.90;99.90;;;;;;4988648;28;20512;-43
2022/05/28 06:32:55;;;;;;;1.65;1.50;;;14.60;99.90;;;;;;4996142;28;20567;-46
2022/05/28 06:35:22;;;;;;;3.00;1.88;;;15.80;99.90;;;;;;4995286;28;20536;-39
2022/05/28 06:37:50;;;;;;;0.88;0.80;;;15.80;99.90;;;;;;4989756;28;20409;-45
2022/05/28 06:40:17;;;;;;;3.47;1.20;;;15.60;99.90;;;;;;4993057;28;20405;-41
2022/05/28 06:42:46;;;;;;;3.30;1.20;;;15.80;99.90;;;;;;4989620;28;20237;-43
2022/05/28 06:45:14;;;;;;;1.90;1.27;;;16.30;99.90;;;;;;4991724;28;20203;-49
2022/05/28 06:47:43;;;;;;;2.50;1.37;;;17.00;99.90;;;;;;4990329;28;20455;-47
2022/05/28 06:52:58;;;;;;;4.90;1.67;;;17.70;99.90;;;;;;4997778;28;20702;-44
2022/05/28 06:55:25;;;;;;;1.13;0.97;;;18.50;99.90;;;;;;4995536;28;20502;-42
2022/05/28 06:57:52;;;;;;;0.80;0.80;;;19.60;99.90;;;;;;4995689;28;20488;-47
2022/05/28 07:00:20;;;;;;;2.30;1.13;;;19.50;99.90;;;;;;4996359;28;20552;-41
2022/05/28 07:02:47;;;;;;;1.20;1.10;;;18.80;99.90;;;;;;4996364;28;20453;-43
2022/05/28 07:05:15;;;;;;;2.90;1.20;;;19.10;99.90;;;;;;4979096;28;20420;-45
2022/05/28 07:07:43;;;;;;;2.00;0.87;;;19.00;99.90;;;;;;4995679;28;20481;-40
2022/05/28 07:10:10;;;;;;;3.30;1.80;;;18.00;99.90;;;;;;4996251;28;20453;-42
2022/05/28 07:12:38;;;;;;;2.30;1.00;;;17.30;99.90;;;;;;4995806;28;20456;-48
2022/05/28 07:15:06;;;;;;;1.50;1.40;;;16.80;99.90;;;;;;4996478;28;20491;-48
2022/05/28 07:17:34;;;;;;;1.03;1.03;;;16.60;99.90;;;;;;4996683;28;20417;-44
2022/05/28 07:20:01;;;;;;;4.83;1.37;;;16.60;99.90;;;;;;4995953;28;20446;-40
2022/05/28 07:22:29;;;;;;;2.53;2.30;;;16.60;99.90;;;;;;4993586;28;20516;-44
2022/05/28 07:24:57;;;;;;;3.40;1.90;;;16.80;99.90;;;;;;4989082;28;20462;-44
2022/05/28 07:27:25;;;;;;;3.23;1.73;;;16.60;99.90;;;;;;4992353;28;21067;-45
2022/05/28 07:29:56;;;;;;;1.67;0.87;;;16.60;99.90;;;;;;4998502;28;20696;-45
2022/05/28 07:32:28;;;;;;;2.33;1.83;;;17.40;99.90;;;;;;4999053;28;20440;-44
2022/05/28 07:34:58;;;;;;;1.20;1.10;;;17.90;99.90;;;;;;4995057;28;20940;-44
2022/05/28 07:37:29;;;;;;;3.80;1.37;;;18.10;99.90;;;;;;4996397;28;20440;-49
2022/05/28 07:39:58;;;;;;;3.37;1.07;;;17.40;99.90;;;;;;4997222;28;20453;-43
2022/05/28 07:42:27;;;;;;;1.87;1.30;;;17.10;99.90;;;;;;4996730;28;20436;-44
2022/05/28 07:44:55;;;;;;;3.13;1.70;;;16.40;99.90;;;;;;4995619;28;20429;-46
2022/05/28 07:47:22;;;;;;;1.33;1.20;;;16.00;99.90;;;;;;4999296;28;20488;-41
2022/05/28 07:49:49;;;;;;;1.93;1.20;;;16.00;99.90;;;;;;4994898;28;20426;-43
2022/05/28 07:52:17;;;;;;;2.30;0.90;;;16.00;99.90;;;;;;4994537;28;20478;-41
2022/05/28 07:54:44;;;;;;;2.63;1.40;;;16.20;99.90;;;;;;4995017;28;20529;-44
2022/05/28 07:57:11;;;;;;;2.30;1.33;;;16.70;99.90;;;;;;4995288;28;20619;-44
2022/05/28 07:59:39;;;;;;;0.70;0.70;;;17.90;99.90;;;;;;4994621;28;20422;-48
2022/05/28 08:02:06;;;;;;;0.93;0.80;;;19.70;99.90;;;;;;4994395;28;20441;-48
2022/05/28 08:04:34;;;;;;;3.40;1.30;;;21.60;93.80;;;;;;4995066;28;20426;-47
2022/05/28 08:07:02;;;;;;;5.00;1.20;;;24.10;85.90;;;;;;4995385;28;20646;-44
2022/05/28 08:09:29;;;;;;;2.50;1.60;;;25.40;78.50;;;;;;4994557;28;20537;-44
2022/05/28 08:11:56;;;;;;;2.13;1.30;;;25.80;71.20;;;;;;4994377;28;20487;-48
2022/05/28 08:14:24;;;;;;;1.97;1.13;;;26.30;67.70;;;;;;4995091;28;20487;-41
2022/05/28 08:16:51;;;;;;;1.00;1.00;;;24.20;73.40;;;;;;4994223;28;20661;-44
2022/05/28 08:19:18;;;;;;;1.33;1.20;;;23.40;76.30;;;;;;4999207;28;20432;-44
2022/05/28 08:24:31;;;;;;;1.43;1.23;;;23.10;74.60;;;;;;4987789;28;20453;-46
2022/05/28 08:26:58;;;;;;;2.63;1.67;;;21.60;80.00;;;;;;4997618;28;20446;-42
2022/05/28 08:29:26;;;;;;;1.10;0.97;;;21.10;82.50;;;;;;4994613;28;20456;-49
2022/05/28 08:31:53;;;;;;;0.87;0.87;;;22.10;75.30;;;;;;4994086;28;20467;-41
2022/05/28 08:34:21;;;;;;;1.37;0.90;;;22.40;74.40;;;;;;4996748;28;20556;-44
2022/05/28 08:36:48;;;;;;;0.90;0.90;;;24.00;72.70;;;;;;4979858;28;20993;-44
2022/05/28 08:39:18;;;;;;;1.00;0.90;;;25.50;67.70;;;;;;4980145;28;20445;-42
2022/05/28 08:41:57;;;;;;;1.00;0.90;;;26.70;63.20;;;;;;4978962;28;20683;-45
2022/05/28 08:44:28;;;;;;;1.43;1.17;;;26.60;62.00;;;;;;4981817;28;20447;-45
2022/05/28 08:47:02;;;;;;;4.47;1.50;;;24.80;62.70;;;;;;4982181;28;20444;-47
2022/05/28 08:49:30;;;;;;;2.60;1.20;;;23.00;67.50;;;;;;4980691;28;20845;-42
2022/05/28 08:52:08;;;;;;;1.27;1.10;;;23.20;67.60;;;;;;4985834;28;20469;-45
2022/05/28 08:54:40;;;;;;;12.83;1.20;;;24.40;66.70;;;;;;4984289;28;20461;-45
2022/05/28 08:57:14;;;;;;;1.97;1.87;;;23.40;67.00;;;;;;4984695;28;20454;-41
2022/05/28 08:59:50;;;;;;;1.67;1.33;;;20.80;72.20;;;;;;4981114;28;20665;-46
2022/05/28 09:02:37;;;;;;;1.60;1.30;;;19.40;76.50;;;;;;4984253;28;20825;-48
2022/05/28 09:05:16;;;;;;;2.20;1.30;;;18.40;82.80;;;;;;4988277;28;20422;-46
2022/05/28 09:07:44;;;;;;;1.37;0.87;;;18.70;87.40;;;;;;4995319;28;20426;-45
2022/05/28 09:10:11;;;;;;;4.40;0.97;;;18.40;87.60;;;;;;4996023;28;20803;-43
2022/05/28 09:12:46;;;;;;;0.87;0.87;;;18.80;88.10;;;;;;4994021;28;20456;-44
2022/05/28 09:15:13;;;;;;;4.10;2.00;;;18.90;90.10;;;;;;4985662;28;20657;-45
2022/05/28 09:17:47;;;;;;;2.03;1.27;;;20.10;86.50;;;;;;4999601;28;20737;-48
2022/05/28 09:20:27;;;;;;;1.13;0.90;;;22.50;78.40;;;;;;4997600;28;20455;-43
2022/05/28 09:22:57;;;;;;;1.00;0.90;;;22.40;77.20;;;;;;4993747;28;20432;-41
2022/05/28 09:25:26;;;;;;;2.37;1.03;;;20.40;82.00;;;;;;4994502;28;20640;-42
2022/05/28 09:28:06;;;;;;;1.50;1.20;;;19.30;89.30;;;;;;4997613;28;20496;-50
2022/05/28 09:30:42;;;;;;;1.07;0.97;;;19.10;90.50;;;;;;4993063;28;20417;-46
2022/05/28 09:33:33;;;;;;;1.27;0.90;;;19.60;90.30;;;;;;4983201;28;20456;-46
2022/05/28 09:36:21;;;;;;;1.10;1.00;;;20.10;88.10;;;;;;4980707;28;20486;-46
2022/05/28 09:39:30;;;;;;;2.97;1.07;;;19.50;90.30;;;;;;4982759;28;20726;-42
2022/05/28 09:42:24;;;;;;;1.00;1.00;;;18.90;92.90;;;;;;4984635;28;20469;-47
2022/05/28 09:45:20;;;;;;;3.23;1.57;;;19.50;91.60;;;;;;4987779;28;20489;-42
2022/05/28 09:47:50;;;;;;;1.50;1.20;;;19.70;91.40;;;;;;4993776;28;20484;-48
2022/05/28 09:50:28;;;;;;;0.93;0.80;;;19.20;92.30;;;;;;4998621;28;20446;-45
2022/05/28 09:56:10;;;;;;;2.47;1.17;;;17.00;99.90;;;;;;4996400;28;20460;-45
2022/05/28 09:58:40;;;;;;;1.25;1.15;;;15.40;99.90;;;;;;4997722;28;20826;-52
2022/05/28 10:01:26;;;;;;;4.45;1.20;;;14.50;99.90;;;;;;4998095;28;20473;-47
2022/05/28 10:06:50;;;;;;;1.40;1.00;;;14.00;99.90;;;;;;4991689;28;20217;-46
2022/05/28 10:09:21;;;;;;;1.20;0.90;;;14.30;99.90;;;;;;4998321;28;20209;-43
2022/05/28 10:11:53;;;;;;;7.22;1.17;;;14.50;99.90;;;;;;4997785;28;20313;-45
2022/05/28 10:14:22;;;;;;;2.40;0.80;;;14.90;99.90;;;;;;4996943;28;20503;-42
2022/05/28 10:16:58;;;;;;;1.00;0.70;;;15.70;99.90;;;;;;4998264;28;20213;-45
2022/05/28 10:19:40;;;;;;;1.15;1.05;;;15.80;99.90;;;;;;4997864;28;20276;-45
2022/05/28 10:22:14;;;;;;;0.60;0.60;;;15.70;99.90;;;;;;4998117;28;20423;-46
2022/05/28 10:24:46;;;;;;;2.20;1.17;;;16.10;99.90;;;;;;4992490;28;20809;-45
2022/05/28 10:27:22;;;;;;;1.00;0.63;;;16.80;99.90;;;;;;4995496;28;20519;-44
2022/05/28 10:29:50;;;;;;;1.33;0.90;;;17.20;99.90;;;;;;4996242;28;20561;-44
2022/05/28 10:32:32;;;;;;;2.53;0.90;;;17.10;99.90;;;;;;4998132;28;20469;-42
2022/05/28 10:35:21;;;;;;;1.10;1.00;;;16.60;99.90;;;;;;4998256;28;20548;-47
2022/05/28 10:37:49;;;;;;;0.52;0.52;;;15.90;99.90;;;;;;4993694;28;20418;-46
2022/05/28 10:40:24;;;;;;;1.00;0.90;;;15.10;99.90;;;;;;4998258;28;20301;-40
2022/05/28 10:43:02;;;;;;;1.63;0.80;;;15.10;99.90;;;;;;5004469;28;20292;-42
2022/05/28 10:45:40;;;;;;;0.60;0.60;;;15.50;99.90;;;;;;5000661;28;20217;-44
2022/05/28 10:48:22;;;;;;;0.93;0.70;;;15.80;99.90;;;;;;4996123;28;20214;-47
2022/05/28 10:51:11;;;;;;;1.85;1.30;;;16.00;99.90;;;;;;4991152;28;20654;-47
2022/05/28 10:54:09;;;;;;;1.42;1.33;;;16.00;99.90;;;;;;4995019;28;20400;-44
2022/05/28 10:56:40;;;;;;;1.38;0.70;;;16.00;99.90;;;;;;4991376;28;20229;-42
2022/05/28 10:59:18;;;;;;;0.70;0.67;;;15.90;99.90;;;;;;4996299;28;20223;-43
2022/05/28 11:02:09;;;;;;;1.10;1.00;;;16.00;99.90;;;;;;4995627;28;20479;-44
2022/05/28 11:05:08;;;;;;;3.20;1.00;;;16.20;99.90;;;;;;4993963;28;20888;-43
2022/05/28 11:07:57;;;;;;;2.50;1.50;;;16.30;99.90;;;;;;4953130;28;20786;-42
2022/05/28 11:11:07;;;;;;;0.80;0.80;;;16.20;99.90;;;;;;4993234;28;20882;-42
2022/05/28 11:13:56;;;;;;;0.70;0.70;;;16.50;99.90;;;;;;4999348;28;20421;-47
2022/05/28 11:16:41;;;;;;;0.97;0.90;;;16.80;99.90;;;;;;5003383;28;20473;-42
2022/05/28 11:19:19;;;;;;;1.47;1.23;;;17.30;99.90;;;;;;4995226;28;20459;-46
2022/05/28 11:22:25;;;;;;;2.27;0.80;;;17.80;99.90;;;;;;4995411;28;20800;-46
2022/05/28 11:24:54;;;;;;;1.43;1.23;;;18.00;99.90;;;;;;4945519;28;20525;-43
2022/05/28 11:27:54;;;;;;;1.00;0.90;;;18.10;99.90;;;;;;4995245;28;20496;-48
2022/05/28 11:30:32;;;;;;;1.07;1.07;;;18.10;99.90;;;;;;4995314;28;20469;-42
2022/05/28 11:33:05;;;;;;;3.13;1.03;;;17.90;99.90;;;;;;5000474;28;20454;-44
2022/05/28 11:35:42;;;;;;;1.23;1.10;;;17.90;99.90;;;;;;4991064;28;20672;-44
2022/05/28 11:38:12;;;;;;;3.03;1.07;;;18.30;99.90;;;;;;4995239;28;20439;-42
2022/05/28 11:41:19;;;;;;;0.83;0.83;;;18.60;99.90;;;;;;4995680;28;20447;-45
2022/05/28 11:44:02;;;;;;;1.53;1.10;;;18.70;99.90;;;;;;4971764;28;20783;-42
2022/05/28 11:46:37;;;;;;;0.70;0.70;;;18.70;99.90;;;;;;5000279;28;20428;-45
2022/05/28 11:52:22;;;;;;;2.53;1.10;;;17.90;99.90;;;;;;4995344;28;20439;-43
2022/05/28 11:55:19;;;;;;;2.97;1.40;;;17.00;99.90;;;;;;4985435;28;20459;-40
2022/05/28 11:58:19;;;;;;;1.67;1.00;;;16.40;99.90;;;;;;4975279;28;20477;-47
2022/05/28 12:00:54;;;;;;;2.27;0.90;;;16.20;99.90;;;;;;4989660;28;20429;-43
2022/05/28 12:03:27;;;;;;;1.57;1.13;;;16.20;99.90;;;;;;4995446;28;20907;-44
2022/05/28 12:06:13;;;;;;;1.23;0.93;;;16.10;99.90;;;;;;4995632;28;20537;-42
2022/05/28 12:08:45;;;;;;;0.80;0.70;;;15.80;99.90;;;;;;4993087;28;20458;-41
2022/05/28 12:11:31;;;;;;;1.10;1.00;;;15.60;99.90;;;;;;4995999;28;20222;-48
2022/05/28 12:14:01;;;;;;;1.88;1.10;;;15.70;99.90;;;;;;4996142;28;20211;-46
2022/05/28 12:16:39;;;;;;;2.38;1.10;;;15.70;99.90;;;;;;4987930;28;20556;-49
2022/05/28 12:19:13;;;;;;;1.23;1.10;;;15.80;99.90;;;;;;4995398;28;20213;-44
2022/05/28 12:21:43;;;;;;;2.90;1.13;;;16.00;99.90;;;;;;4996060;28;20941;-44
2022/05/28 12:24:24;;;;;;;0.70;0.70;;;16.20;99.90;;;;;;4999811;28;20205;-45
2022/05/28 12:30:00;;;;;;;1.57;1.00;;;16.50;99.90;;;;;;4996304;28;20665;-44
2022/05/28 12:32:44;;;;;;;0.67;0.67;;;16.90;99.90;;;;;;4999417;28;20980;-43
2022/05/28 12:35:15;;;;;;;4.97;1.03;;;16.80;99.90;;;;;;4997640;28;20491;-50
2022/05/28 12:38:01;;;;;;;1.53;0.93;;;16.80;99.90;;;;;;4998873;28;20420;-43
2022/05/28 12:40:41;;;;;;;6.23;1.00;;;16.90;99.90;;;;;;4995271;28;20762;-42
2022/05/28 12:43:17;;;;;;;1.70;0.80;;;16.70;99.90;;;;;;4998944;28;20554;-42
2022/05/28 12:45:49;;;;;;;0.80;0.80;;;16.50;99.90;;;;;;4999853;28;20449;-44
2022/05/28 12:48:30;;;;;;;1.58;1.10;;;16.10;99.90;;;;;;5001650;28;20458;-48
2022/05/28 12:51:15;;;;;;;0.68;0.68;;;15.70;99.90;;;;;;5002167;28;20206;-42
2022/05/28 12:54:00;;;;;;;0.98;0.98;;;15.50;99.90;;;;;;4999019;28;20213;-42
2022/05/28 12:56:40;;;;;;;0.98;0.80;;;15.70;99.90;;;;;;4999383;28;20233;-47
2022/05/28 12:59:13;;;;;;;1.45;0.90;;;16.10;99.90;;;;;;4995560;28;20202;-46
2022/05/28 13:02:08;;;;;;;1.85;1.17;;;16.30;99.90;;;;;;4998163;28;20490;-45
2022/05/28 13:05:15;;;;;;;0.88;0.75;;;16.10;99.90;;;;;;4991298;28;20209;-43
2022/05/28 13:07:53;;;;;;;0.60;0.60;;;15.90;99.90;;;;;;4907608;28;20697;-47
2022/05/28 13:10:25;;;;;;;2.45;1.35;;;15.90;99.90;;;;;;4996765;28;20209;-43
2022/05/28 13:13:24;;;;;;;2.28;1.05;;;16.00;99.90;;;;;;4997415;28;20718;-41
2022/05/28 13:16:22;;;;;;;0.50;0.50;;;15.80;99.90;;;;;;4997028;28;20226;-43
2022/05/28 13:19:25;;;;;;;8.32;1.77;;;15.70;99.90;;;;;;4994156;28;20215;-46
2022/05/28 13:22:03;;;;;;;2.95;1.25;;;15.90;99.90;;;;;;4981471;28;20240;-46
2022/05/28 13:25:01;;;;;;;0.80;0.80;;;16.00;99.90;;;;;;4995764;28;20205;-45
2022/05/28 13:28:09;;;;;;;2.65;0.82;;;16.00;99.90;;;;;;4999255;28;20235;-43
2022/05/28 13:30:41;;;;;;;1.25;1.05;;;15.90;99.90;;;;;;4990516;28;20211;-42
2022/05/28 13:33:15;;;;;;;3.30;1.75;;;16.00;99.90;;;;;;4997416;28;20229;-44
2022/05/28 13:35:53;;;;;;;3.33;1.13;;;16.00;99.90;;;;;;4997566;28;20547;-45
2022/05/28 13:38:27;;;;;;;1.30;0.77;;;16.00;99.90;;;;;;4980737;28;20567;-43